createdAt,value
2022-12-11T00:00:33.315Z,23.00
2022-12-11T00:01:33.304Z,23.00
2022-12-11T00:02:33.361Z,23.50
2022-12-11T00:03:33.344Z,23.50
2022-12-11T00:04:33.285Z,23.70
2022-12-11T00:05:34.376Z,23.40
2022-12-11T00:06:33.270Z,23.50
2022-12-11T00:07:33.261Z,24.00
2022-12-11T00:08:33.271Z,23.90
2022-12-11T00:09:33.224Z,23.90
2022-12-11T00:10:36.233Z,23.60
2022-12-11T00:11:34.231Z,23.80
2022-12-11T00:12:33.224Z,22.90
2022-12-11T00:13:33.220Z,24.40
2022-12-11T00:14:33.159Z,24.60
2022-12-11T00:15:33.175Z,23.50
2022-12-11T00:16:33.194Z,24.90
2022-12-11T00:17:33.200Z,24.60
2022-12-11T00:18:33.123Z,25.40
2022-12-11T00:19:33.137Z,24.50
2022-12-11T00:20:33.137Z,24.90
2022-12-11T00:21:33.084Z,25.80
2022-12-11T00:22:33.087Z,25.70
2022-12-11T00:23:33.086Z,24.30
2022-12-11T00:24:33.104Z,25.00
2022-12-11T00:25:33.053Z,25.10
2022-12-11T00:26:33.040Z,23.90
2022-12-11T00:27:33.053Z,24.50
2022-12-11T00:28:33.153Z,24.50
2022-12-11T00:29:33.789Z,26.20
2022-12-11T00:30:33.740Z,25.30
2022-12-11T00:31:33.059Z,25.00
2022-12-11T00:32:37.449Z,24.40
2022-12-11T00:33:33.980Z,24.70
2022-12-11T00:34:32.964Z,25.00
2022-12-11T00:35:33.005Z,25.00
2022-12-11T00:36:33.621Z,25.00
2022-12-11T00:37:32.983Z,25.10
2022-12-11T00:38:32.939Z,24.80
2022-12-11T00:39:32.933Z,24.50
2022-12-11T00:40:32.925Z,24.50
2022-12-11T00:41:32.901Z,24.60
2022-12-11T00:42:33.952Z,24.60
2022-12-11T00:43:32.869Z,25.30
2022-12-11T00:44:32.917Z,24.40
2022-12-11T00:45:32.859Z,24.90
2022-12-11T00:46:32.856Z,24.70
2022-12-11T00:47:32.837Z,24.30
2022-12-11T00:48:32.821Z,24.60
2022-12-11T00:49:32.822Z,25.90
2022-12-11T00:50:32.795Z,23.40
2022-12-11T00:51:32.817Z,23.90
2022-12-11T00:52:32.793Z,23.90
2022-12-11T00:53:32.794Z,24.40
2022-12-11T00:54:32.773Z,23.10
2022-12-11T00:55:32.745Z,24.20
2022-12-11T00:56:33.741Z,23.20
2022-12-11T00:57:32.721Z,23.60
2022-12-11T00:58:32.765Z,23.30
2022-12-11T00:59:32.723Z,23.20
2022-12-11T01:00:32.763Z,22.70
2022-12-11T01:01:32.727Z,23.30
2022-12-11T01:02:32.750Z,22.70
2022-12-11T01:03:32.690Z,22.50
2022-12-11T01:04:32.709Z,22.00
2022-12-11T01:05:32.681Z,22.60
2022-12-11T01:06:32.663Z,22.60
2022-12-11T01:07:32.658Z,22.90
2022-12-11T01:08:38.276Z,21.20
2022-12-11T01:09:34.602Z,22.30
2022-12-11T01:10:32.633Z,21.70
2022-12-11T01:11:32.701Z,22.20
2022-12-11T01:12:32.569Z,21.80
2022-12-11T01:13:32.565Z,22.60
2022-12-11T01:14:32.582Z,22.10
2022-12-11T01:15:32.530Z,22.20
2022-12-11T01:16:32.580Z,21.60
2022-12-11T01:17:32.514Z,22.40
2022-12-11T01:18:32.515Z,22.40
2022-12-11T01:19:32.510Z,22.20
2022-12-11T01:20:32.490Z,22.70
2022-12-11T01:21:32.549Z,23.40
2022-12-11T01:22:32.498Z,22.90
2022-12-11T01:23:32.458Z,23.40
2022-12-11T01:24:33.298Z,24.00
2022-12-11T01:25:32.543Z,23.50
2022-12-11T01:26:32.670Z,24.60
2022-12-11T01:27:32.413Z,22.30
2022-12-11T01:28:32.418Z,22.80
2022-12-11T01:29:32.387Z,22.90
2022-12-11T01:30:32.414Z,23.70
2022-12-11T01:31:32.426Z,23.20
2022-12-11T01:32:32.364Z,23.00
2022-12-11T01:33:32.372Z,23.00
2022-12-11T01:34:32.331Z,22.50
2022-12-11T01:35:32.430Z,22.70
2022-12-11T01:36:32.388Z,22.90
2022-12-11T01:37:32.356Z,22.60
2022-12-11T01:38:32.355Z,23.20
2022-12-11T01:39:32.339Z,22.80
2022-12-11T01:40:32.399Z,22.90
2022-12-11T01:41:32.317Z,23.30
2022-12-11T01:42:32.256Z,22.40
2022-12-11T01:43:32.276Z,22.70
2022-12-11T01:44:32.260Z,23.20
2022-12-11T01:45:32.236Z,23.70
2022-12-11T01:46:32.262Z,22.70
2022-12-11T01:47:33.152Z,22.60
2022-12-11T01:48:32.189Z,22.50
2022-12-11T01:49:32.282Z,23.50
2022-12-11T01:50:32.185Z,23.70
2022-12-11T01:51:32.151Z,23.40
2022-12-11T01:52:32.129Z,23.80
2022-12-11T01:53:32.174Z,23.60
2022-12-11T01:54:32.146Z,23.70
2022-12-11T01:55:32.256Z,25.00
2022-12-11T01:56:32.109Z,24.00
2022-12-11T01:57:32.101Z,24.70
2022-12-11T01:58:32.081Z,24.90
2022-12-11T01:59:32.134Z,24.90
2022-12-11T02:00:32.134Z,24.50
2022-12-11T02:01:32.148Z,24.70
2022-12-11T02:02:32.094Z,24.00
2022-12-11T02:03:32.050Z,24.40
2022-12-11T02:04:32.028Z,24.90
2022-12-11T02:05:32.044Z,25.70
2022-12-11T02:06:32.025Z,27.90
2022-12-11T02:07:32.124Z,29.40
2022-12-11T02:08:32.084Z,30.40
2022-12-11T02:09:31.962Z,31.60
2022-12-11T02:10:31.974Z,32.50
2022-12-11T02:11:31.969Z,33.10
2022-12-11T02:12:32.004Z,32.90
2022-12-11T02:13:32.028Z,33.50
2022-12-11T02:14:32.126Z,33.70
2022-12-11T02:15:31.917Z,33.00
2022-12-11T02:16:31.923Z,32.00
2022-12-11T02:17:31.909Z,32.40
2022-12-11T02:18:31.906Z,33.20
2022-12-11T02:19:31.873Z,31.40
2022-12-11T02:20:31.863Z,32.40
2022-12-11T02:21:31.889Z,31.00
2022-12-11T02:22:32.751Z,30.10
2022-12-11T02:23:31.830Z,30.20
2022-12-11T02:24:31.845Z,29.10
2022-12-11T02:25:31.995Z,28.70
2022-12-11T02:27:04.210Z,24.80
2022-12-11T02:27:31.789Z,26.00
2022-12-11T02:28:31.766Z,24.40
2022-12-11T02:29:31.770Z,21.00
2022-12-11T02:30:31.846Z,19.70
2022-12-11T02:31:31.856Z,17.70
2022-12-11T02:32:31.802Z,16.80
2022-12-11T02:33:31.867Z,16.10
2022-12-11T02:34:31.750Z,16.40
2022-12-11T02:35:31.701Z,15.70
2022-12-11T02:36:31.711Z,15.70
2022-12-11T02:37:31.707Z,15.60
2022-12-11T02:38:31.650Z,16.30
2022-12-11T02:39:31.670Z,16.30
2022-12-11T02:40:31.642Z,15.60
2022-12-11T02:41:31.630Z,15.10
2022-12-11T02:42:31.769Z,14.20
2022-12-11T02:43:31.642Z,14.40
2022-12-11T02:44:31.627Z,14.00
2022-12-11T02:45:31.737Z,14.10
2022-12-11T02:46:31.791Z,14.20
2022-12-11T02:47:31.647Z,14.50
2022-12-11T02:48:31.654Z,13.60
2022-12-11T02:49:31.582Z,15.20
2022-12-11T02:50:31.571Z,14.70
2022-12-11T02:51:31.575Z,15.30
2022-12-11T02:52:31.583Z,16.00
2022-12-11T02:53:31.503Z,15.00
2022-12-11T02:54:31.512Z,14.90
2022-12-11T02:55:31.502Z,14.30
2022-12-11T02:56:31.484Z,13.00
2022-12-11T02:57:31.685Z,14.00
2022-12-11T02:58:31.495Z,14.00
2022-12-11T02:59:31.445Z,13.10
2022-12-11T03:00:32.245Z,13.20
2022-12-11T03:01:31.475Z,14.50
2022-12-11T03:02:31.514Z,14.10
2022-12-11T03:03:31.408Z,14.20
2022-12-11T03:04:31.404Z,14.30
2022-12-11T03:05:31.432Z,14.70
2022-12-11T03:06:31.385Z,13.90
2022-12-11T03:07:31.380Z,14.40
2022-12-11T03:08:31.401Z,14.40
2022-12-11T03:09:31.337Z,14.90
2022-12-11T03:10:31.376Z,15.80
2022-12-11T03:11:31.366Z,14.70
2022-12-11T03:12:31.346Z,14.10
2022-12-11T03:13:31.328Z,13.80
2022-12-11T03:14:31.288Z,13.00
2022-12-11T03:15:31.301Z,14.10
2022-12-11T03:16:31.303Z,14.60
2022-12-11T03:17:31.450Z,14.30
2022-12-11T03:18:31.242Z,14.50
2022-12-11T03:19:31.270Z,14.50
2022-12-11T03:20:31.281Z,13.40
2022-12-11T03:21:31.237Z,13.80
2022-12-11T03:22:31.240Z,11.90
2022-12-11T03:23:31.218Z,11.70
2022-12-11T03:24:31.203Z,12.70
2022-12-11T03:25:31.188Z,11.80
2022-12-11T03:26:31.172Z,11.00
2022-12-11T03:27:31.205Z,11.20
2022-12-11T03:28:31.184Z,12.90
2022-12-11T03:29:31.233Z,12.40
2022-12-11T03:30:31.230Z,12.80
2022-12-11T03:31:31.128Z,12.80
2022-12-11T03:32:31.136Z,13.10
2022-12-11T03:33:31.112Z,13.20
2022-12-11T03:34:31.154Z,12.80
2022-12-11T03:35:31.129Z,12.80
2022-12-11T03:36:31.175Z,13.40
2022-12-11T03:37:31.057Z,13.20
2022-12-11T03:38:31.082Z,13.20
2022-12-11T03:39:31.057Z,13.40
2022-12-11T03:40:32.099Z,13.30
2022-12-11T03:41:31.725Z,12.90
2022-12-11T03:42:31.168Z,12.80
2022-12-11T03:43:31.754Z,12.70
2022-12-11T03:44:31.169Z,12.90
2022-12-11T03:45:31.761Z,12.90
2022-12-11T03:46:31.171Z,13.50
2022-12-11T03:47:31.099Z,13.50
2022-12-11T03:48:30.938Z,12.80
2022-12-11T03:49:30.971Z,13.10
2022-12-11T03:50:30.931Z,13.80
2022-12-11T03:51:30.926Z,15.20
2022-12-11T03:52:30.895Z,17.10
2022-12-11T03:53:30.890Z,17.60
2022-12-11T03:54:30.918Z,17.40
2022-12-11T03:55:30.890Z,17.70
2022-12-11T03:56:30.922Z,16.50
2022-12-11T03:57:30.920Z,16.50
2022-12-11T03:58:31.775Z,15.70
2022-12-11T03:59:30.899Z,15.70
2022-12-11T04:00:30.814Z,16.00
2022-12-11T04:01:30.909Z,18.00
2022-12-11T04:02:30.879Z,16.20
2022-12-11T04:03:30.835Z,16.70
2022-12-11T04:04:30.852Z,17.00
2022-12-11T04:05:30.915Z,16.80
2022-12-11T04:06:30.777Z,17.50
2022-12-11T04:07:30.770Z,17.90
2022-12-11T04:08:30.808Z,16.60
2022-12-11T04:09:30.756Z,16.80
2022-12-11T04:10:30.794Z,16.50
2022-12-11T04:11:30.787Z,17.70
2022-12-11T04:12:30.720Z,18.40
2022-12-11T04:13:30.730Z,17.30
2022-12-11T04:14:30.674Z,19.20
2022-12-11T04:15:30.665Z,20.70
2022-12-11T04:16:30.678Z,20.10
2022-12-11T04:17:30.683Z,20.90
2022-12-11T04:18:30.654Z,21.10
2022-12-11T04:19:30.744Z,20.80
2022-12-11T04:20:30.622Z,20.10
2022-12-11T04:21:33.926Z,20.90
2022-12-11T04:22:31.706Z,20.30
2022-12-11T04:23:31.595Z,20.40
2022-12-11T04:24:30.667Z,21.00
2022-12-11T04:25:30.607Z,21.10
2022-12-11T04:26:30.661Z,20.40
2022-12-11T04:27:31.363Z,20.40
2022-12-11T04:28:30.559Z,21.10
2022-12-11T04:29:30.607Z,20.00
2022-12-11T04:30:34.111Z,18.50
2022-12-11T04:31:31.673Z,18.80
2022-12-11T04:32:30.580Z,18.50
2022-12-11T04:33:30.545Z,18.80
2022-12-11T04:34:30.507Z,18.10
2022-12-11T04:35:30.636Z,18.70
2022-12-11T04:36:30.447Z,18.20
2022-12-11T04:37:31.575Z,19.50
2022-12-11T04:38:30.440Z,16.50
2022-12-11T04:39:30.445Z,18.40
2022-12-11T04:40:30.404Z,19.70
2022-12-11T04:41:30.439Z,19.10
2022-12-11T04:42:30.423Z,19.60
2022-12-11T04:43:30.400Z,20.20
2022-12-11T04:44:30.400Z,20.90
2022-12-11T04:45:30.360Z,21.10
2022-12-11T04:46:30.376Z,20.20
2022-12-11T04:47:31.072Z,20.80
2022-12-11T04:48:30.351Z,20.70
2022-12-11T04:49:30.392Z,20.70
2022-12-11T04:50:30.332Z,21.20
2022-12-11T04:51:30.449Z,20.30
2022-12-11T04:52:30.284Z,20.80
2022-12-11T04:53:30.293Z,21.10
2022-12-11T04:54:30.276Z,21.20
2022-12-11T04:55:30.243Z,20.90
2022-12-11T04:56:30.265Z,20.40
2022-12-11T04:57:30.240Z,20.80
2022-12-11T04:58:30.393Z,20.50
2022-12-11T04:59:30.209Z,19.80
2022-12-11T05:00:30.208Z,21.20
2022-12-11T05:01:30.468Z,20.60
2022-12-11T05:02:30.227Z,20.30
2022-12-11T05:03:30.328Z,19.80
2022-12-11T05:04:31.229Z,19.80
2022-12-11T05:05:30.154Z,20.10
2022-12-11T05:06:30.188Z,20.30
2022-12-11T05:07:30.116Z,19.60
2022-12-11T05:08:30.120Z,20.10
2022-12-11T05:09:30.106Z,20.30
2022-12-11T05:10:30.112Z,19.10
2022-12-11T05:11:30.097Z,20.60
2022-12-11T05:12:30.101Z,21.00
2022-12-11T05:13:30.104Z,21.20
2022-12-11T05:14:30.145Z,20.40
2022-12-11T05:15:30.125Z,20.90
2022-12-11T05:16:30.183Z,20.00
2022-12-11T05:17:30.018Z,20.70
2022-12-11T05:18:30.121Z,20.30
2022-12-11T05:19:30.073Z,20.00
2022-12-11T05:20:31.074Z,21.40
2022-12-11T05:21:34.763Z,20.60
2022-12-11T05:22:31.995Z,20.40
2022-12-11T05:23:30.978Z,20.90
2022-12-11T05:24:29.994Z,21.50
2022-12-11T05:25:30.016Z,21.00
2022-12-11T05:26:29.934Z,22.60
2022-12-11T05:27:29.924Z,24.00
2022-12-11T05:28:30.016Z,22.50
2022-12-11T05:29:29.933Z,23.20
2022-12-11T05:30:29.959Z,22.80
2022-12-11T05:31:29.909Z,24.10
2022-12-11T05:32:29.874Z,24.10
2022-12-11T05:33:29.867Z,23.80
2022-12-11T05:34:29.855Z,23.40
2022-12-11T05:35:29.882Z,24.30
2022-12-11T05:36:29.886Z,24.60
2022-12-11T05:37:29.847Z,24.70
2022-12-11T05:38:29.816Z,25.30
2022-12-11T05:39:29.787Z,24.60
2022-12-11T05:40:29.787Z,25.90
2022-12-11T05:41:29.821Z,24.80
2022-12-11T05:42:29.763Z,25.80
2022-12-11T05:43:29.776Z,25.70
2022-12-11T05:44:29.737Z,25.30
2022-12-11T05:45:29.736Z,25.10
2022-12-11T05:46:29.858Z,25.20
2022-12-11T05:47:29.724Z,25.70
2022-12-11T05:48:29.716Z,25.30
2022-12-11T05:49:31.110Z,25.90
2022-12-11T05:50:30.676Z,26.10
2022-12-11T05:51:29.729Z,25.30
2022-12-11T05:52:29.774Z,25.70
2022-12-11T05:53:29.659Z,26.00
2022-12-11T05:54:29.711Z,26.40
2022-12-11T05:55:29.767Z,27.10
2022-12-11T05:56:29.626Z,26.70
2022-12-11T05:57:29.612Z,27.10
2022-12-11T05:58:29.617Z,26.80
2022-12-11T05:59:29.675Z,27.40
2022-12-11T06:00:35.707Z,26.80
2022-12-11T06:01:31.183Z,27.30
2022-12-11T06:02:29.734Z,27.70
2022-12-11T06:03:29.560Z,27.40
2022-12-11T06:04:29.556Z,27.50
2022-12-11T06:05:29.548Z,26.70
2022-12-11T06:06:29.555Z,26.60
2022-12-11T06:07:29.609Z,27.00
2022-12-11T06:08:29.518Z,26.70
2022-12-11T06:09:29.504Z,26.00
2022-12-11T06:10:29.601Z,26.10
2022-12-11T06:11:29.476Z,26.90
2022-12-11T06:12:30.488Z,26.10
2022-12-11T06:13:29.483Z,26.90
2022-12-11T06:14:30.059Z,26.20
2022-12-11T06:15:29.481Z,26.50
2022-12-11T06:16:29.585Z,26.60
2022-12-11T06:17:29.420Z,27.20
2022-12-11T06:18:29.428Z,26.50
2022-12-11T06:19:33.479Z,27.00
2022-12-11T06:20:31.368Z,26.40
2022-12-11T06:21:29.485Z,26.60
2022-12-11T06:22:29.349Z,27.00
2022-12-11T06:23:29.354Z,27.00
2022-12-11T06:24:29.318Z,26.80
2022-12-11T06:25:29.335Z,26.90
2022-12-11T06:26:29.369Z,27.30
2022-12-11T06:27:29.298Z,27.40
2022-12-11T06:28:29.428Z,27.80
2022-12-11T06:29:29.286Z,28.10
2022-12-11T06:30:38.780Z,27.60
2022-12-11T06:31:30.325Z,27.00
2022-12-11T06:32:29.240Z,26.80
2022-12-11T06:33:29.250Z,26.90
2022-12-11T06:34:29.677Z,26.00
2022-12-11T06:35:29.225Z,27.30
2022-12-11T06:36:29.223Z,25.10
2022-12-11T06:37:29.233Z,27.90
2022-12-11T06:38:29.789Z,27.90
2022-12-11T06:39:29.165Z,26.90
2022-12-11T06:40:29.221Z,27.30
2022-12-11T06:41:29.802Z,27.30
2022-12-11T06:42:29.154Z,26.90
2022-12-11T06:43:29.136Z,27.80
2022-12-11T06:44:30.122Z,27.20
2022-12-11T06:45:29.360Z,27.30
2022-12-11T06:46:29.231Z,26.90
2022-12-11T06:47:29.085Z,26.60
2022-12-11T06:48:29.199Z,27.00
2022-12-11T06:49:29.304Z,27.30
2022-12-11T06:50:29.073Z,25.70
2022-12-11T06:51:30.073Z,26.60
2022-12-11T06:52:29.069Z,25.70
2022-12-11T06:53:29.023Z,26.30
2022-12-11T06:54:29.035Z,26.70
2022-12-11T06:55:29.070Z,26.40
2022-12-11T06:56:30.074Z,26.80
2022-12-11T06:57:29.014Z,27.00
2022-12-11T06:58:29.094Z,26.50
2022-12-11T06:59:29.071Z,26.70
2022-12-11T07:00:29.628Z,27.50
2022-12-11T07:01:29.073Z,27.40
2022-12-11T07:02:29.069Z,26.90
2022-12-11T07:03:29.088Z,26.40
2022-12-11T07:04:28.978Z,25.90
2022-12-11T07:05:28.923Z,26.40
2022-12-11T07:06:28.926Z,27.10
2022-12-11T07:07:28.902Z,27.00
2022-12-11T07:08:28.922Z,25.40
2022-12-11T07:09:28.999Z,27.70
2022-12-11T07:10:28.956Z,26.70
2022-12-11T07:11:29.739Z,25.90
2022-12-11T07:12:28.872Z,26.40
2022-12-11T07:13:28.868Z,27.30
2022-12-11T07:14:28.833Z,27.50
2022-12-11T07:15:28.826Z,27.80
2022-12-11T07:16:28.862Z,26.50
2022-12-11T07:17:28.814Z,27.40
2022-12-11T07:18:28.809Z,27.90
2022-12-11T07:19:28.797Z,27.90
2022-12-11T07:20:28.853Z,28.00
2022-12-11T07:21:28.759Z,26.80
2022-12-11T07:22:28.778Z,27.30
2022-12-11T07:23:28.755Z,27.40
2022-12-11T07:24:28.706Z,27.70
2022-12-11T07:25:29.668Z,28.00
2022-12-11T07:26:28.707Z,29.30
2022-12-11T07:27:28.728Z,28.10
2022-12-11T07:28:28.709Z,28.50
2022-12-11T07:29:29.720Z,28.70
2022-12-11T07:30:28.753Z,28.90
2022-12-11T07:31:28.908Z,28.00
2022-12-11T07:32:28.788Z,29.20
2022-12-11T07:33:28.628Z,28.20
2022-12-11T07:34:28.625Z,28.40
2022-12-11T07:35:29.569Z,28.40
2022-12-11T07:36:28.607Z,28.80
2022-12-11T07:37:28.608Z,28.50
2022-12-11T07:38:28.681Z,28.10
2022-12-11T07:39:28.585Z,30.60
2022-12-11T07:40:28.689Z,34.30
2022-12-11T07:41:28.572Z,30.10
2022-12-11T07:42:28.542Z,28.50
2022-12-11T07:43:28.534Z,28.60
2022-12-11T07:44:28.751Z,28.70
2022-12-11T07:45:30.595Z,28.30
2022-12-11T07:46:28.472Z,27.30
2022-12-11T07:47:28.536Z,28.30
2022-12-11T07:48:28.497Z,28.70
2022-12-11T07:49:28.497Z,28.40
2022-12-11T07:50:28.493Z,28.20
2022-12-11T07:51:28.433Z,29.00
2022-12-11T07:52:28.538Z,29.00
2022-12-11T07:53:28.581Z,30.00
2022-12-11T07:54:28.398Z,33.20
2022-12-11T07:55:28.409Z,30.60
2022-12-11T07:56:28.396Z,28.90
2022-12-11T07:57:28.353Z,29.80
2022-12-11T07:58:28.353Z,28.70
2022-12-11T07:59:28.362Z,29.10
2022-12-11T08:00:28.333Z,28.90
2022-12-11T08:01:28.391Z,30.90
2022-12-11T08:02:31.360Z,28.70
2022-12-11T08:03:29.382Z,29.80
2022-12-11T08:04:28.346Z,29.50
2022-12-11T08:05:28.351Z,29.60
2022-12-11T08:06:28.339Z,31.20
2022-12-11T08:07:29.088Z,28.30
2022-12-11T08:08:28.284Z,29.10
2022-12-11T08:09:28.253Z,29.10
2022-12-11T08:10:28.254Z,28.80
2022-12-11T08:11:29.213Z,27.60
2022-12-11T08:12:28.387Z,28.80
2022-12-11T08:13:28.207Z,29.90
2022-12-11T08:14:28.185Z,29.50
2022-12-11T08:15:28.201Z,27.50
2022-12-11T08:16:28.337Z,27.60
2022-12-11T08:17:30.967Z,27.80
2022-12-11T08:18:29.177Z,28.20
2022-12-11T08:19:28.178Z,28.40
2022-12-11T08:20:28.166Z,28.70
2022-12-11T08:21:28.221Z,27.50
2022-12-11T08:22:28.324Z,27.80
2022-12-11T08:23:28.296Z,27.80
2022-12-11T08:24:28.081Z,32.30
2022-12-11T08:25:28.122Z,28.80
2022-12-11T08:26:28.228Z,27.30
2022-12-11T08:27:28.093Z,28.00
2022-12-11T08:28:28.161Z,27.30
2022-12-11T08:29:28.046Z,26.50
2022-12-11T08:30:28.077Z,27.60
2022-12-11T08:31:28.191Z,27.30
2022-12-11T08:32:29.015Z,27.80
2022-12-11T08:33:28.118Z,28.10
2022-12-11T08:34:28.087Z,28.50
2022-12-11T08:35:28.666Z,29.00
2022-12-11T08:36:28.007Z,27.80
2022-12-11T08:37:27.962Z,27.90
2022-12-11T08:38:27.954Z,28.30
2022-12-11T08:39:27.959Z,27.50
2022-12-11T08:40:27.935Z,27.70
2022-12-11T08:41:28.038Z,28.10
2022-12-11T08:42:28.083Z,26.90
2022-12-11T08:43:27.894Z,27.60
2022-12-11T08:44:28.022Z,28.10
2022-12-11T08:45:28.023Z,27.80
2022-12-11T08:46:27.886Z,28.30
2022-12-11T08:47:27.976Z,27.20
2022-12-11T08:48:27.931Z,27.00
2022-12-11T08:49:34.240Z,27.40
2022-12-11T08:50:30.204Z,26.50
2022-12-11T08:51:27.875Z,27.70
2022-12-11T08:52:27.833Z,26.80
2022-12-11T08:53:27.865Z,27.80
2022-12-11T08:54:27.771Z,27.90
2022-12-11T08:55:27.852Z,28.00
2022-12-11T08:56:27.773Z,27.60
2022-12-11T08:57:28.036Z,29.20
2022-12-11T08:58:27.741Z,28.70
2022-12-11T08:59:27.960Z,29.70
2022-12-11T09:00:27.706Z,29.60
2022-12-11T09:01:28.756Z,29.70
2022-12-11T09:02:29.410Z,29.30
2022-12-11T09:03:27.677Z,29.60
2022-12-11T09:04:27.663Z,31.40
2022-12-11T09:05:28.632Z,29.60
2022-12-11T09:06:27.736Z,29.90
2022-12-11T09:07:28.648Z,29.40
2022-12-11T09:08:27.713Z,28.30
2022-12-11T09:09:27.660Z,29.00
2022-12-11T09:10:27.683Z,29.70
2022-12-11T09:11:27.594Z,29.80
2022-12-11T09:12:27.662Z,29.60
2022-12-11T09:13:27.581Z,29.20
2022-12-11T09:14:27.576Z,29.40
2022-12-11T09:15:27.544Z,29.50
2022-12-11T09:16:27.598Z,30.30
2022-12-11T09:17:27.534Z,29.70
2022-12-11T09:18:27.542Z,29.40
2022-12-11T09:19:32.107Z,32.10
2022-12-11T09:20:28.520Z,31.70
2022-12-11T09:21:27.489Z,32.50
2022-12-11T09:22:27.481Z,31.30
2022-12-11T09:23:27.456Z,32.80
2022-12-11T09:24:27.461Z,33.60
2022-12-11T09:25:27.462Z,31.40
2022-12-11T09:26:27.456Z,31.20
2022-12-11T09:27:27.461Z,30.40
2022-12-11T09:28:27.414Z,31.50
2022-12-11T09:29:27.426Z,30.10
2022-12-11T09:30:27.396Z,30.00
2022-12-11T09:31:27.408Z,32.20
2022-12-11T09:32:27.412Z,31.40
2022-12-11T09:33:27.373Z,31.40
2022-12-11T09:34:29.386Z,31.10
2022-12-11T09:35:28.409Z,31.40
2022-12-11T09:36:28.350Z,30.80
2022-12-11T09:37:28.186Z,29.60
2022-12-11T09:38:28.169Z,29.40
2022-12-11T09:39:27.307Z,29.50
2022-12-11T09:40:27.289Z,29.70
2022-12-11T09:41:27.300Z,29.50
2022-12-11T09:42:27.262Z,29.10
2022-12-11T09:43:27.257Z,29.90
2022-12-11T09:44:27.262Z,30.30
2022-12-11T09:45:27.240Z,30.50
2022-12-11T09:46:32.141Z,30.10
2022-12-11T09:47:29.247Z,29.30
2022-12-11T09:48:27.198Z,28.10
2022-12-11T09:49:27.290Z,29.10
2022-12-11T09:50:27.176Z,29.10
2022-12-11T09:51:27.178Z,28.80
2022-12-11T09:52:27.193Z,29.40
2022-12-11T09:53:31.051Z,29.90
2022-12-11T09:54:28.995Z,29.30
2022-12-11T09:55:27.215Z,27.00
2022-12-11T09:56:27.271Z,28.90
2022-12-11T09:57:28.110Z,29.10
2022-12-11T09:58:27.152Z,29.40
2022-12-11T09:59:27.127Z,28.00
2022-12-11T10:00:27.103Z,28.80
2022-12-11T10:01:28.440Z,30.30
2022-12-11T10:02:27.744Z,29.30
2022-12-11T10:03:27.103Z,28.10
2022-12-11T10:04:27.026Z,29.80
2022-12-11T10:05:27.091Z,30.00
2022-12-11T10:06:27.002Z,28.80
2022-12-11T10:07:27.026Z,29.60
2022-12-11T10:08:27.057Z,29.80
2022-12-11T10:09:26.997Z,30.60
2022-12-11T10:10:27.039Z,30.70
2022-12-11T10:11:26.948Z,30.70
2022-12-11T10:12:27.150Z,31.10
2022-12-11T10:13:26.950Z,30.90
2022-12-11T10:14:26.970Z,31.30
2022-12-11T10:15:26.951Z,30.20
2022-12-11T10:16:26.916Z,30.40
2022-12-11T10:17:27.036Z,31.70
2022-12-11T10:18:27.667Z,33.80
2022-12-11T10:19:26.883Z,33.10
2022-12-11T10:20:26.868Z,33.20
2022-12-11T10:21:26.855Z,32.20
2022-12-11T10:22:26.840Z,31.20
2022-12-11T10:23:26.841Z,32.20
2022-12-11T10:25:05.735Z,31.70
2022-12-11T10:25:29.452Z,31.60
2022-12-11T10:26:26.810Z,31.20
2022-12-11T10:27:26.802Z,31.10
2022-12-11T10:28:26.824Z,31.80
2022-12-11T10:29:26.900Z,32.20
2022-12-11T10:30:30.394Z,30.50
2022-12-11T10:31:28.793Z,30.40
2022-12-11T10:32:26.746Z,31.60
2022-12-11T10:33:26.734Z,31.70
2022-12-11T10:34:26.709Z,30.20
2022-12-11T10:35:26.765Z,31.40
2022-12-11T10:36:26.732Z,31.80
2022-12-11T10:37:26.725Z,33.00
2022-12-11T10:38:26.695Z,32.80
2022-12-11T10:39:26.693Z,33.30
2022-12-11T10:40:27.678Z,34.90
2022-12-11T10:41:26.661Z,35.20
2022-12-11T10:42:26.677Z,35.80
2022-12-11T10:43:26.628Z,34.60
2022-12-11T10:44:26.638Z,37.00
2022-12-11T10:45:27.610Z,37.50
2022-12-11T10:46:27.668Z,36.00
2022-12-11T10:47:26.570Z,36.80
2022-12-11T10:48:27.502Z,36.20
2022-12-11T10:49:27.580Z,37.90
2022-12-11T10:50:26.646Z,37.10
2022-12-11T10:51:26.543Z,37.80
2022-12-11T10:52:26.581Z,37.20
2022-12-11T10:53:26.535Z,40.10
2022-12-11T10:54:26.554Z,38.90
2022-12-11T10:55:27.243Z,38.90
2022-12-11T10:56:26.524Z,39.10
2022-12-11T10:57:26.490Z,40.20
2022-12-11T10:58:26.458Z,39.20
2022-12-11T10:59:26.445Z,39.20
2022-12-11T11:00:26.450Z,39.30
2022-12-11T11:01:26.529Z,38.20
2022-12-11T11:02:26.460Z,40.80
2022-12-11T11:03:26.536Z,40.50
2022-12-11T11:04:26.391Z,41.30
2022-12-11T11:05:26.395Z,39.90
2022-12-11T11:06:26.404Z,40.10
2022-12-11T11:07:26.418Z,39.50
2022-12-11T11:08:26.393Z,40.10
2022-12-11T11:09:26.362Z,40.10
2022-12-11T11:10:26.330Z,39.90
2022-12-11T11:11:26.414Z,39.60
2022-12-11T11:12:26.364Z,40.20
2022-12-11T11:13:27.986Z,39.60
2022-12-11T11:14:26.407Z,39.90
2022-12-11T11:15:26.534Z,39.50
2022-12-11T11:16:26.409Z,40.10
2022-12-11T11:17:29.560Z,39.40
2022-12-11T11:18:27.478Z,40.60
2022-12-11T11:19:26.238Z,40.10
2022-12-11T11:20:26.243Z,39.90
2022-12-11T11:21:26.259Z,39.60
2022-12-11T11:22:26.214Z,39.70
2022-12-11T11:23:26.214Z,38.40
2022-12-11T11:24:26.243Z,39.80
2022-12-11T11:25:26.179Z,40.60
2022-12-11T11:26:43.598Z,39.40
2022-12-11T11:27:28.207Z,40.50
2022-12-11T11:28:26.139Z,40.40
2022-12-11T11:29:26.193Z,39.40
2022-12-11T11:30:26.131Z,39.70
2022-12-11T11:31:26.193Z,39.70
2022-12-11T11:32:26.216Z,40.20
2022-12-11T11:33:26.108Z,39.80
2022-12-11T11:34:26.100Z,42.70
2022-12-11T11:35:26.121Z,40.30
2022-12-11T11:36:26.072Z,40.70
2022-12-11T11:37:26.078Z,39.80
2022-12-11T11:38:26.773Z,41.20
2022-12-11T11:39:26.112Z,39.80
2022-12-11T11:40:26.036Z,40.50
2022-12-11T11:41:26.652Z,39.60
2022-12-11T11:42:26.024Z,39.80
2022-12-11T11:43:26.038Z,39.90
2022-12-11T11:44:26.022Z,40.60
2022-12-11T11:45:25.971Z,40.90
2022-12-11T11:46:26.014Z,39.70
2022-12-11T11:47:25.998Z,41.00
2022-12-11T11:48:25.940Z,40.90
2022-12-11T11:49:25.951Z,43.30
2022-12-11T11:50:25.926Z,42.50
2022-12-11T11:51:25.952Z,40.40
2022-12-11T11:52:26.964Z,39.90
2022-12-11T11:53:25.916Z,40.90
2022-12-11T11:54:25.975Z,42.00
2022-12-11T11:55:26.029Z,41.40
2022-12-11T11:56:25.907Z,41.70
2022-12-11T11:57:25.864Z,41.80
2022-12-11T11:58:25.908Z,42.40
2022-12-11T11:59:25.870Z,39.70
2022-12-11T12:00:30.316Z,40.00
2022-12-11T12:01:26.797Z,40.50
2022-12-11T12:02:25.835Z,51.20
2022-12-11T12:03:25.767Z,41.20
2022-12-11T12:04:25.961Z,40.10
2022-12-11T12:05:25.784Z,39.90
2022-12-11T12:06:26.020Z,40.00
2022-12-11T12:07:25.788Z,40.00
2022-12-11T12:08:25.782Z,39.40
2022-12-11T12:09:25.784Z,40.90
2022-12-11T12:10:25.697Z,40.70
2022-12-11T12:11:25.709Z,40.20
2022-12-11T12:12:31.058Z,40.00
2022-12-11T12:13:48.992Z,40.70
2022-12-11T12:14:53.076Z,39.40
2022-12-11T12:15:27.666Z,40.60
2022-12-11T12:16:51.504Z,40.70
2022-12-11T12:17:27.677Z,40.70
2022-12-11T12:18:25.694Z,40.40
2022-12-11T12:19:25.601Z,42.10
2022-12-11T12:20:25.603Z,41.10
2022-12-11T12:21:25.608Z,39.40
2022-12-11T12:22:25.593Z,41.30
2022-12-11T12:23:25.596Z,40.00
2022-12-11T12:24:25.561Z,39.20
2022-12-11T12:25:25.556Z,40.60
2022-12-11T12:26:25.547Z,40.70
2022-12-11T12:27:51.540Z,39.50
2022-12-11T12:28:27.534Z,40.90
2022-12-11T12:29:25.565Z,39.00
2022-12-11T12:30:26.453Z,40.00
2022-12-11T12:31:25.772Z,39.80
2022-12-11T12:32:25.640Z,39.10
2022-12-11T12:33:25.550Z,39.60
2022-12-11T12:34:25.471Z,39.90
2022-12-11T12:35:25.474Z,39.90
2022-12-11T12:36:25.499Z,40.40
2022-12-11T12:37:25.511Z,40.30
2022-12-11T12:38:25.468Z,39.80
2022-12-11T12:39:25.402Z,40.90
2022-12-11T12:40:25.485Z,41.40
2022-12-11T12:41:25.383Z,41.40
2022-12-11T12:42:25.399Z,39.70
2022-12-11T12:43:25.458Z,42.10
2022-12-11T12:44:25.447Z,41.20
2022-12-11T12:45:25.435Z,40.40
2022-12-11T12:46:25.422Z,40.80
2022-12-11T12:47:25.332Z,40.00
2022-12-11T12:48:25.428Z,40.40
2022-12-11T12:49:25.299Z,41.30
2022-12-11T12:50:25.340Z,41.50
2022-12-11T12:51:25.401Z,40.60
2022-12-11T12:52:25.335Z,41.00